sensor_id;sensor_type;location;lat;lon;timestamp;P1;durP1;ratioP1;P2;durP2;ratioP2
69005;SDS011;56061;51.748;19.620;2023-05-19T00:02:01;10.70;;;5.90;;
69005;SDS011;56061;51.748;19.620;2023-05-19T00:04:31;11.30;;;6.50;;
69005;SDS011;56061;51.748;19.620;2023-05-19T00:06:59;11.40;;;6.50;;
69005;SDS011;56061;51.748;19.620;2023-05-19T00:09:26;9.90;;;6.70;;
69005;SDS011;56061;51.748;19.620;2023-05-19T00:11:53;10.90;;;6.50;;
69005;SDS011;56061;51.748;19.620;2023-05-19T00:14:22;11.90;;;6.20;;
69005;SDS011;56061;51.748;19.620;2023-05-19T00:16:48;10.30;;;5.90;;
69005;SDS011;56061;51.748;19.620;2023-05-19T00:19:15;9.30;;;5.70;;
69005;SDS011;56061;51.748;19.620;2023-05-19T00:21:42;9.60;;;6.10;;
69005;SDS011;56061;51.748;19.620;2023-05-19T00:24:08;11.80;;;6.50;;
69005;SDS011;56061;51.748;19.620;2023-05-19T00:26:35;11.80;;;6.70;;
69005;SDS011;56061;51.748;19.620;2023-05-19T00:29:01;9.60;;;6.40;;
69005;SDS011;56061;51.748;19.620;2023-05-19T00:31:28;9.90;;;6.50;;
69005;SDS011;56061;51.748;19.620;2023-05-19T00:33:54;8.90;;;6.10;;
69005;SDS011;56061;51.748;19.620;2023-05-19T00:36:21;9.50;;;6.10;;
69005;SDS011;56061;51.748;19.620;2023-05-19T00:38:48;10.80;;;5.90;;
69005;SDS011;56061;51.748;19.620;2023-05-19T00:41:16;10.30;;;5.90;;
69005;SDS011;56061;51.748;19.620;2023-05-19T00:43:42;10.50;;;5.50;;
69005;SDS011;56061;51.748;19.620;2023-05-19T00:46:09;10.30;;;6.30;;
69005;SDS011;56061;51.748;19.620;2023-05-19T00:48:36;12.30;;;7.00;;
69005;SDS011;56061;51.748;19.620;2023-05-19T00:51:03;10.00;;;6.60;;
69005;SDS011;56061;51.748;19.620;2023-05-19T00:53:32;10.50;;;6.80;;
69005;SDS011;56061;51.748;19.620;2023-05-19T00:55:59;10.90;;;7.40;;
69005;SDS011;56061;51.748;19.620;2023-05-19T00:58:29;10.00;;;6.30;;
69005;SDS011;56061;51.748;19.620;2023-05-19T01:00:58;11.00;;;6.50;;
69005;SDS011;56061;51.748;19.620;2023-05-19T01:03:30;9.80;;;6.60;;
69005;SDS011;56061;51.748;19.620;2023-05-19T01:05:58;10.70;;;6.60;;
69005;SDS011;56061;51.748;19.620;2023-05-19T01:08:34;12.40;;;7.20;;
69005;SDS011;56061;51.748;19.620;2023-05-19T01:11:03;10.10;;;6.20;;
69005;SDS011;56061;51.748;19.620;2023-05-19T01:13:33;10.70;;;6.50;;
69005;SDS011;56061;51.748;19.620;2023-05-19T01:16:16;9.20;;;6.00;;
69005;SDS011;56061;51.748;19.620;2023-05-19T01:19:00;10.40;;;5.80;;
69005;SDS011;56061;51.748;19.620;2023-05-19T01:22:11;11.00;;;6.30;;
69005;SDS011;56061;51.748;19.620;2023-05-19T01:25:15;10.10;;;7.00;;
69005;SDS011;56061;51.748;19.620;2023-05-19T01:28:15;18.30;;;7.20;;
69005;SDS011;56061;51.748;19.620;2023-05-19T01:30:53;11.60;;;6.70;;
69005;SDS011;56061;51.748;19.620;2023-05-19T01:33:23;10.90;;;6.50;;
69005;SDS011;56061;51.748;19.620;2023-05-19T01:35:50;12.20;;;7.10;;
69005;SDS011;56061;51.748;19.620;2023-05-19T01:38:19;12.10;;;6.70;;
69005;SDS011;56061;51.748;19.620;2023-05-19T01:40:47;13.40;;;7.50;;
69005;SDS011;56061;51.748;19.620;2023-05-19T01:43:20;12.20;;;7.50;;
69005;SDS011;56061;51.748;19.620;2023-05-19T01:45:49;12.50;;;7.20;;
69005;SDS011;56061;51.748;19.620;2023-05-19T01:48:17;12.50;;;8.10;;
69005;SDS011;56061;51.748;19.620;2023-05-19T01:50:44;13.50;;;7.90;;
69005;SDS011;56061;51.748;19.620;2023-05-19T01:53:11;11.70;;;7.50;;
69005;SDS011;56061;51.748;19.620;2023-05-19T01:55:47;10.50;;;6.10;;
69005;SDS011;56061;51.748;19.620;2023-05-19T01:58:38;10.80;;;6.80;;
69005;SDS011;56061;51.748;19.620;2023-05-19T02:04:14;13.10;;;6.80;;
69005;SDS011;56061;51.748;19.620;2023-05-19T02:07:43;10.50;;;6.40;;
69005;SDS011;56061;51.748;19.620;2023-05-19T02:10:21;10.30;;;5.80;;
69005;SDS011;56061;51.748;19.620;2023-05-19T02:12:54;9.90;;;5.90;;
69005;SDS011;56061;51.748;19.620;2023-05-19T02:15:25;11.00;;;6.00;;
69005;SDS011;56061;51.748;19.620;2023-05-19T02:17:58;10.00;;;6.30;;
69005;SDS011;56061;51.748;19.620;2023-05-19T02:20:30;12.50;;;7.50;;
69005;SDS011;56061;51.748;19.620;2023-05-19T02:22:57;11.30;;;7.60;;
69005;SDS011;56061;51.748;19.620;2023-05-19T02:25:23;13.60;;;7.80;;
69005;SDS011;56061;51.748;19.620;2023-05-19T02:27:51;10.00;;;6.40;;
69005;SDS011;56061;51.748;19.620;2023-05-19T02:30:17;13.10;;;6.60;;
69005;SDS011;56061;51.748;19.620;2023-05-19T02:32:44;10.40;;;5.80;;
69005;SDS011;56061;51.748;19.620;2023-05-19T02:35:12;11.00;;;5.70;;
69005;SDS011;56061;51.748;19.620;2023-05-19T02:37:38;9.60;;;5.90;;
69005;SDS011;56061;51.748;19.620;2023-05-19T02:40:06;9.90;;;5.60;;
69005;SDS011;56061;51.748;19.620;2023-05-19T02:42:33;9.70;;;6.00;;
69005;SDS011;56061;51.748;19.620;2023-05-19T02:44:59;11.90;;;6.50;;
69005;SDS011;56061;51.748;19.620;2023-05-19T02:47:26;10.30;;;6.50;;
69005;SDS011;56061;51.748;19.620;2023-05-19T02:49:52;11.30;;;6.70;;
69005;SDS011;56061;51.748;19.620;2023-05-19T02:52:19;11.80;;;7.00;;
69005;SDS011;56061;51.748;19.620;2023-05-19T02:54:45;9.40;;;5.90;;
69005;SDS011;56061;51.748;19.620;2023-05-19T02:57:12;11.00;;;6.10;;
69005;SDS011;56061;51.748;19.620;2023-05-19T02:59:38;10.30;;;5.90;;
69005;SDS011;56061;51.748;19.620;2023-05-19T03:02:05;11.30;;;6.20;;
69005;SDS011;56061;51.748;19.620;2023-05-19T03:04:31;10.20;;;5.70;;
69005;SDS011;56061;51.748;19.620;2023-05-19T03:06:58;10.40;;;6.10;;
69005;SDS011;56061;51.748;19.620;2023-05-19T03:09:24;10.40;;;5.90;;
69005;SDS011;56061;51.748;19.620;2023-05-19T03:11:51;10.30;;;5.80;;
69005;SDS011;56061;51.748;19.620;2023-05-19T03:14:17;15.00;;;9.20;;
69005;SDS011;56061;51.748;19.620;2023-05-19T03:16:44;18.00;;;11.90;;
69005;SDS011;56061;51.748;19.620;2023-05-19T03:19:11;18.90;;;12.50;;
69005;SDS011;56061;51.748;19.620;2023-05-19T03:21:37;16.10;;;12.00;;
69005;SDS011;56061;51.748;19.620;2023-05-19T03:24:04;16.10;;;12.60;;
69005;SDS011;56061;51.748;19.620;2023-05-19T03:26:31;14.80;;;9.80;;
69005;SDS011;56061;51.748;19.620;2023-05-19T03:28:58;12.80;;;8.60;;
69005;SDS011;56061;51.748;19.620;2023-05-19T03:31:24;12.10;;;7.00;;
69005;SDS011;56061;51.748;19.620;2023-05-19T03:33:51;9.60;;;5.60;;
69005;SDS011;56061;51.748;19.620;2023-05-19T03:36:18;9.30;;;5.20;;
69005;SDS011;56061;51.748;19.620;2023-05-19T03:38:44;8.80;;;4.80;;
69005;SDS011;56061;51.748;19.620;2023-05-19T03:41:11;8.60;;;4.50;;
69005;SDS011;56061;51.748;19.620;2023-05-19T03:43:37;7.10;;;4.30;;
69005;SDS011;56061;51.748;19.620;2023-05-19T03:46:04;7.80;;;4.40;;
69005;SDS011;56061;51.748;19.620;2023-05-19T03:48:31;7.70;;;3.80;;
69005;SDS011;56061;51.748;19.620;2023-05-19T03:50:57;6.90;;;3.60;;
69005;SDS011;56061;51.748;19.620;2023-05-19T03:53:24;8.10;;;4.20;;
69005;SDS011;56061;51.748;19.620;2023-05-19T03:55:51;7.40;;;3.50;;
69005;SDS011;56061;51.748;19.620;2023-05-19T03:58:17;7.90;;;3.60;;
69005;SDS011;56061;51.748;19.620;2023-05-19T04:00:44;7.50;;;3.60;;
69005;SDS011;56061;51.748;19.620;2023-05-19T04:03:11;6.80;;;3.50;;
69005;SDS011;56061;51.748;19.620;2023-05-19T04:05:37;5.70;;;3.10;;
69005;SDS011;56061;51.748;19.620;2023-05-19T04:08:07;7.60;;;3.50;;
69005;SDS011;56061;51.748;19.620;2023-05-19T04:10:33;6.90;;;3.30;;
69005;SDS011;56061;51.748;19.620;2023-05-19T04:13:00;6.70;;;3.50;;
69005;SDS011;56061;51.748;19.620;2023-05-19T04:15:26;6.70;;;3.20;;
69005;SDS011;56061;51.748;19.620;2023-05-19T04:17:53;6.80;;;3.40;;
69005;SDS011;56061;51.748;19.620;2023-05-19T04:20:20;6.40;;;3.10;;
69005;SDS011;56061;51.748;19.620;2023-05-19T04:22:46;7.40;;;3.50;;
69005;SDS011;56061;51.748;19.620;2023-05-19T04:25:13;6.60;;;3.10;;
69005;SDS011;56061;51.748;19.620;2023-05-19T04:27:39;6.40;;;3.20;;
69005;SDS011;56061;51.748;19.620;2023-05-19T04:30:06;6.80;;;3.30;;
69005;SDS011;56061;51.748;19.620;2023-05-19T04:32:33;6.40;;;3.00;;
69005;SDS011;56061;51.748;19.620;2023-05-19T04:35:02;7.00;;;3.50;;
69005;SDS011;56061;51.748;19.620;2023-05-19T04:37:29;8.10;;;3.70;;
69005;SDS011;56061;51.748;19.620;2023-05-19T04:39:56;7.60;;;4.00;;
69005;SDS011;56061;51.748;19.620;2023-05-19T04:42:23;10.60;;;4.10;;
69005;SDS011;56061;51.748;19.620;2023-05-19T04:44:51;6.60;;;3.90;;
69005;SDS011;56061;51.748;19.620;2023-05-19T04:47:18;7.50;;;3.80;;
69005;SDS011;56061;51.748;19.620;2023-05-19T04:49:47;7.80;;;3.80;;
69005;SDS011;56061;51.748;19.620;2023-05-19T04:52:14;7.10;;;3.80;;
69005;SDS011;56061;51.748;19.620;2023-05-19T04:54:41;7.00;;;3.70;;
69005;SDS011;56061;51.748;19.620;2023-05-19T04:57:07;7.60;;;3.70;;
69005;SDS011;56061;51.748;19.620;2023-05-19T04:59:35;6.80;;;3.60;;
69005;SDS011;56061;51.748;19.620;2023-05-19T05:02:02;6.80;;;3.60;;
69005;SDS011;56061;51.748;19.620;2023-05-19T05:04:29;7.70;;;4.10;;
69005;SDS011;56061;51.748;19.620;2023-05-19T05:06:56;7.60;;;3.90;;
69005;SDS011;56061;51.748;19.620;2023-05-19T05:09:22;6.70;;;3.70;;
69005;SDS011;56061;51.748;19.620;2023-05-19T05:11:49;7.80;;;3.20;;
69005;SDS011;56061;51.748;19.620;2023-05-19T05:14:17;9.30;;;3.50;;
69005;SDS011;56061;51.748;19.620;2023-05-19T05:16:44;6.80;;;3.60;;
69005;SDS011;56061;51.748;19.620;2023-05-19T05:19:11;6.70;;;3.50;;
69005;SDS011;56061;51.748;19.620;2023-05-19T05:21:38;8.80;;;3.20;;
69005;SDS011;56061;51.748;19.620;2023-05-19T05:24:05;7.20;;;3.50;;
69005;SDS011;56061;51.748;19.620;2023-05-19T05:26:33;7.40;;;3.30;;
69005;SDS011;56061;51.748;19.620;2023-05-19T05:29:01;5.90;;;2.90;;
69005;SDS011;56061;51.748;19.620;2023-05-19T05:31:29;5.10;;;2.50;;
69005;SDS011;56061;51.748;19.620;2023-05-19T05:33:57;6.70;;;2.90;;
69005;SDS011;56061;51.748;19.620;2023-05-19T05:36:24;6.10;;;2.90;;
69005;SDS011;56061;51.748;19.620;2023-05-19T05:38:50;7.80;;;2.90;;
69005;SDS011;56061;51.748;19.620;2023-05-19T05:41:17;6.20;;;2.50;;
69005;SDS011;56061;51.748;19.620;2023-05-19T05:43:43;6.40;;;2.70;;
69005;SDS011;56061;51.748;19.620;2023-05-19T05:46:10;5.60;;;2.30;;
69005;SDS011;56061;51.748;19.620;2023-05-19T05:48:37;6.10;;;2.20;;
69005;SDS011;56061;51.748;19.620;2023-05-19T05:51:04;5.80;;;2.50;;
69005;SDS011;56061;51.748;19.620;2023-05-19T05:53:34;6.70;;;2.60;;
69005;SDS011;56061;51.748;19.620;2023-05-19T05:56:04;5.40;;;2.70;;
69005;SDS011;56061;51.748;19.620;2023-05-19T05:58:30;4.90;;;2.30;;
69005;SDS011;56061;51.748;19.620;2023-05-19T06:01:03;5.70;;;2.70;;
69005;SDS011;56061;51.748;19.620;2023-05-19T06:03:30;4.50;;;2.00;;
69005;SDS011;56061;51.748;19.620;2023-05-19T06:05:57;4.90;;;2.50;;
69005;SDS011;56061;51.748;19.620;2023-05-19T06:08:23;6.60;;;2.80;;
69005;SDS011;56061;51.748;19.620;2023-05-19T06:10:50;5.20;;;2.50;;
69005;SDS011;56061;51.748;19.620;2023-05-19T06:13:16;5.20;;;2.50;;
69005;SDS011;56061;51.748;19.620;2023-05-19T06:15:47;7.20;;;2.40;;
69005;SDS011;56061;51.748;19.620;2023-05-19T06:18:14;5.60;;;2.30;;
69005;SDS011;56061;51.748;19.620;2023-05-19T06:20:40;5.50;;;2.80;;
69005;SDS011;56061;51.748;19.620;2023-05-19T06:23:07;7.00;;;3.20;;
69005;SDS011;56061;51.748;19.620;2023-05-19T06:25:33;5.80;;;2.80;;
69005;SDS011;56061;51.748;19.620;2023-05-19T06:28:01;5.80;;;2.20;;
69005;SDS011;56061;51.748;19.620;2023-05-19T06:30:28;6.50;;;3.50;;
69005;SDS011;56061;51.748;19.620;2023-05-19T06:32:55;6.40;;;2.50;;
69005;SDS011;56061;51.748;19.620;2023-05-19T06:35:21;7.10;;;2.70;;
69005;SDS011;56061;51.748;19.620;2023-05-19T06:37:48;5.30;;;2.80;;
69005;SDS011;56061;51.748;19.620;2023-05-19T06:40:14;5.80;;;2.90;;
69005;SDS011;56061;51.748;19.620;2023-05-19T06:42:41;6.00;;;3.10;;
69005;SDS011;56061;51.748;19.620;2023-05-19T06:45:08;5.60;;;3.10;;
69005;SDS011;56061;51.748;19.620;2023-05-19T06:47:35;6.50;;;3.20;;
69005;SDS011;56061;51.748;19.620;2023-05-19T06:50:02;5.50;;;3.10;;
69005;SDS011;56061;51.748;19.620;2023-05-19T06:52:29;7.40;;;3.30;;
69005;SDS011;56061;51.748;19.620;2023-05-19T06:54:56;7.00;;;3.80;;
69005;SDS011;56061;51.748;19.620;2023-05-19T06:57:22;6.20;;;3.30;;
69005;SDS011;56061;51.748;19.620;2023-05-19T06:59:49;6.20;;;3.70;;
69005;SDS011;56061;51.748;19.620;2023-05-19T07:02:15;7.20;;;3.20;;
69005;SDS011;56061;51.748;19.620;2023-05-19T07:04:42;6.60;;;3.40;;
69005;SDS011;56061;51.748;19.620;2023-05-19T07:07:09;6.30;;;3.40;;
69005;SDS011;56061;51.748;19.620;2023-05-19T07:09:35;7.10;;;3.10;;
69005;SDS011;56061;51.748;19.620;2023-05-19T07:12:02;6.40;;;3.30;;
69005;SDS011;56061;51.748;19.620;2023-05-19T07:14:29;6.00;;;3.10;;
69005;SDS011;56061;51.748;19.620;2023-05-19T07:16:55;6.40;;;3.50;;
69005;SDS011;56061;51.748;19.620;2023-05-19T07:19:22;7.50;;;3.70;;
69005;SDS011;56061;51.748;19.620;2023-05-19T07:21:49;8.80;;;3.80;;
69005;SDS011;56061;51.748;19.620;2023-05-19T07:24:16;6.10;;;3.00;;
69005;SDS011;56061;51.748;19.620;2023-05-19T07:26:42;5.30;;;2.90;;
69005;SDS011;56061;51.748;19.620;2023-05-19T07:29:09;6.60;;;3.50;;
69005;SDS011;56061;51.748;19.620;2023-05-19T07:31:35;6.30;;;3.10;;
69005;SDS011;56061;51.748;19.620;2023-05-19T07:34:02;7.10;;;3.40;;
69005;SDS011;56061;51.748;19.620;2023-05-19T07:36:29;6.90;;;3.30;;
69005;SDS011;56061;51.748;19.620;2023-05-19T07:38:56;5.90;;;2.90;;
69005;SDS011;56061;51.748;19.620;2023-05-19T07:41:22;7.60;;;3.00;;
69005;SDS011;56061;51.748;19.620;2023-05-19T07:43:49;6.70;;;2.80;;
69005;SDS011;56061;51.748;19.620;2023-05-19T07:46:16;5.90;;;2.70;;
69005;SDS011;56061;51.748;19.620;2023-05-19T07:48:42;6.90;;;3.10;;
69005;SDS011;56061;51.748;19.620;2023-05-19T07:51:11;6.20;;;2.70;;
69005;SDS011;56061;51.748;19.620;2023-05-19T07:53:38;5.80;;;3.00;;
69005;SDS011;56061;51.748;19.620;2023-05-19T07:56:04;6.70;;;2.90;;
69005;SDS011;56061;51.748;19.620;2023-05-19T07:58:31;6.30;;;2.70;;
69005;SDS011;56061;51.748;19.620;2023-05-19T08:00:58;5.30;;;2.70;;
69005;SDS011;56061;51.748;19.620;2023-05-19T08:03:25;6.20;;;2.60;;
69005;SDS011;56061;51.748;19.620;2023-05-19T08:05:53;7.10;;;2.50;;
69005;SDS011;56061;51.748;19.620;2023-05-19T08:08:19;4.30;;;2.10;;
69005;SDS011;56061;51.748;19.620;2023-05-19T08:10:47;5.40;;;2.70;;
69005;SDS011;56061;51.748;19.620;2023-05-19T08:13:13;8.00;;;2.60;;
69005;SDS011;56061;51.748;19.620;2023-05-19T08:15:39;6.70;;;2.50;;
69005;SDS011;56061;51.748;19.620;2023-05-19T08:18:06;5.30;;;2.30;;
69005;SDS011;56061;51.748;19.620;2023-05-19T08:20:33;5.00;;;2.50;;
69005;SDS011;56061;51.748;19.620;2023-05-19T08:23:00;4.40;;;2.30;;
69005;SDS011;56061;51.748;19.620;2023-05-19T08:25:26;6.00;;;2.70;;
69005;SDS011;56061;51.748;19.620;2023-05-19T08:27:53;6.60;;;2.80;;
69005;SDS011;56061;51.748;19.620;2023-05-19T08:30:19;6.70;;;2.70;;
69005;SDS011;56061;51.748;19.620;2023-05-19T08:32:46;6.20;;;3.00;;
69005;SDS011;56061;51.748;19.620;2023-05-19T08:35:14;4.00;;;2.50;;
69005;SDS011;56061;51.748;19.620;2023-05-19T08:37:40;5.50;;;2.70;;
69005;SDS011;56061;51.748;19.620;2023-05-19T08:40:10;6.90;;;2.70;;
69005;SDS011;56061;51.748;19.620;2023-05-19T08:42:43;6.10;;;2.90;;
69005;SDS011;56061;51.748;19.620;2023-05-19T08:45:10;5.80;;;2.60;;
69005;SDS011;56061;51.748;19.620;2023-05-19T08:47:44;6.00;;;2.50;;
69005;SDS011;56061;51.748;19.620;2023-05-19T08:50:15;5.70;;;2.80;;
69005;SDS011;56061;51.748;19.620;2023-05-19T08:53:00;5.50;;;2.70;;
69005;SDS011;56061;51.748;19.620;2023-05-19T08:56:02;6.40;;;2.60;;
69005;SDS011;56061;51.748;19.620;2023-05-19T08:58:39;6.10;;;3.30;;
69005;SDS011;56061;51.748;19.620;2023-05-19T09:01:12;6.20;;;3.20;;
69005;SDS011;56061;51.748;19.620;2023-05-19T09:03:43;6.20;;;3.20;;
69005;SDS011;56061;51.748;19.620;2023-05-19T09:06:11;6.30;;;3.20;;
69005;SDS011;56061;51.748;19.620;2023-05-19T09:08:42;7.20;;;3.70;;
69005;SDS011;56061;51.748;19.620;2023-05-19T09:11:09;6.80;;;3.60;;
69005;SDS011;56061;51.748;19.620;2023-05-19T09:13:36;5.50;;;3.20;;
69005;SDS011;56061;51.748;19.620;2023-05-19T09:16:03;7.00;;;3.60;;
69005;SDS011;56061;51.748;19.620;2023-05-19T09:18:30;5.50;;;3.10;;
69005;SDS011;56061;51.748;19.620;2023-05-19T09:20:57;7.40;;;3.80;;
69005;SDS011;56061;51.748;19.620;2023-05-19T09:23:36;11.90;;;3.80;;
69005;SDS011;56061;51.748;19.620;2023-05-19T09:26:04;7.60;;;3.70;;
69005;SDS011;56061;51.748;19.620;2023-05-19T09:28:35;6.80;;;3.60;;
69005;SDS011;56061;51.748;19.620;2023-05-19T09:31:04;6.20;;;3.40;;
69005;SDS011;56061;51.748;19.620;2023-05-19T09:33:35;6.50;;;3.60;;
69005;SDS011;56061;51.748;19.620;2023-05-19T09:36:03;8.70;;;3.10;;
69005;SDS011;56061;51.748;19.620;2023-05-19T09:38:31;7.80;;;3.60;;
69005;SDS011;56061;51.748;19.620;2023-05-19T09:40:59;7.20;;;4.20;;
69005;SDS011;56061;51.748;19.620;2023-05-19T09:43:29;7.70;;;4.10;;
69005;SDS011;56061;51.748;19.620;2023-05-19T09:46:06;7.20;;;4.40;;
69005;SDS011;56061;51.748;19.620;2023-05-19T09:48:37;6.70;;;3.90;;
69005;SDS011;56061;51.748;19.620;2023-05-19T09:51:06;7.30;;;4.20;;
69005;SDS011;56061;51.748;19.620;2023-05-19T09:53:33;6.70;;;4.20;;
69005;SDS011;56061;51.748;19.620;2023-05-19T09:56:01;7.30;;;4.20;;
69005;SDS011;56061;51.748;19.620;2023-05-19T09:58:32;6.90;;;4.00;;
69005;SDS011;56061;51.748;19.620;2023-05-19T10:01:03;6.50;;;3.70;;
69005;SDS011;56061;51.748;19.620;2023-05-19T10:03:30;6.90;;;4.30;;
69005;SDS011;56061;51.748;19.620;2023-05-19T10:06:02;8.10;;;4.30;;
69005;SDS011;56061;51.748;19.620;2023-05-19T10:08:31;9.60;;;4.50;;
69005;SDS011;56061;51.748;19.620;2023-05-19T10:10:59;9.00;;;5.20;;
69005;SDS011;56061;51.748;19.620;2023-05-19T10:13:28;8.80;;;4.80;;
69005;SDS011;56061;51.748;19.620;2023-05-19T10:15:57;9.90;;;4.90;;
69005;SDS011;56061;51.748;19.620;2023-05-19T10:18:26;7.10;;;4.40;;
69005;SDS011;56061;51.748;19.620;2023-05-19T10:20:56;7.20;;;4.80;;
69005;SDS011;56061;51.748;19.620;2023-05-19T10:23:24;9.60;;;5.60;;
69005;SDS011;56061;51.748;19.620;2023-05-19T10:25:53;7.80;;;4.70;;
69005;SDS011;56061;51.748;19.620;2023-05-19T10:28:33;8.90;;;5.10;;
69005;SDS011;56061;51.748;19.620;2023-05-19T10:31:07;8.10;;;4.80;;
69005;SDS011;56061;51.748;19.620;2023-05-19T10:34:18;10.70;;;5.30;;
69005;SDS011;56061;51.748;19.620;2023-05-19T10:40:20;9.20;;;5.50;;
69005;SDS011;56061;51.748;19.620;2023-05-19T10:45:57;9.60;;;5.40;;
69005;SDS011;56061;51.748;19.620;2023-05-19T10:48:24;8.60;;;5.50;;
69005;SDS011;56061;51.748;19.620;2023-05-19T10:50:55;9.10;;;4.70;;
69005;SDS011;56061;51.748;19.620;2023-05-19T10:53:31;8.70;;;4.50;;
69005;SDS011;56061;51.748;19.620;2023-05-19T10:56:02;9.40;;;5.10;;
69005;SDS011;56061;51.748;19.620;2023-05-19T11:01:16;9.40;;;5.70;;
69005;SDS011;56061;51.748;19.620;2023-05-19T11:03:44;8.70;;;4.80;;
69005;SDS011;56061;51.748;19.620;2023-05-19T11:06:28;8.60;;;5.40;;
69005;SDS011;56061;51.748;19.620;2023-05-19T11:09:01;11.30;;;5.70;;
69005;SDS011;56061;51.748;19.620;2023-05-19T11:11:54;9.00;;;4.70;;
69005;SDS011;56061;51.748;19.620;2023-05-19T11:14:26;8.80;;;5.00;;
69005;SDS011;56061;51.748;19.620;2023-05-19T11:16:56;8.10;;;4.80;;
69005;SDS011;56061;51.748;19.620;2023-05-19T11:19:28;8.90;;;5.30;;
69005;SDS011;56061;51.748;19.620;2023-05-19T11:22:12;10.90;;;7.10;;
69005;SDS011;56061;51.748;19.620;2023-05-19T11:24:42;10.30;;;6.50;;
69005;SDS011;56061;51.748;19.620;2023-05-19T11:27:32;10.00;;;6.10;;
69005;SDS011;56061;51.748;19.620;2023-05-19T11:30:07;10.60;;;6.20;;
69005;SDS011;56061;51.748;19.620;2023-05-19T11:32:39;9.10;;;6.40;;
69005;SDS011;56061;51.748;19.620;2023-05-19T11:35:11;14.60;;;6.70;;
69005;SDS011;56061;51.748;19.620;2023-05-19T11:37:41;10.20;;;6.20;;
69005;SDS011;56061;51.748;19.620;2023-05-19T11:40:08;11.30;;;5.80;;
69005;SDS011;56061;51.748;19.620;2023-05-19T11:42:35;13.50;;;6.00;;
69005;SDS011;56061;51.748;19.620;2023-05-19T11:45:03;10.70;;;5.80;;
69005;SDS011;56061;51.748;19.620;2023-05-19T11:47:31;11.60;;;6.80;;
69005;SDS011;56061;51.748;19.620;2023-05-19T11:50:12;10.20;;;5.90;;
69005;SDS011;56061;51.748;19.620;2023-05-19T11:52:43;13.40;;;6.10;;
69005;SDS011;56061;51.748;19.620;2023-05-19T11:55:17;9.70;;;5.70;;
69005;SDS011;56061;51.748;19.620;2023-05-19T11:58:01;12.90;;;6.30;;
69005;SDS011;56061;51.748;19.620;2023-05-19T12:00:36;12.30;;;5.70;;
69005;SDS011;56061;51.748;19.620;2023-05-19T12:03:07;10.30;;;6.40;;
69005;SDS011;56061;51.748;19.620;2023-05-19T12:05:42;10.70;;;5.40;;
69005;SDS011;56061;51.748;19.620;2023-05-19T12:08:20;9.20;;;4.90;;
69005;SDS011;56061;51.748;19.620;2023-05-19T12:10:48;9.10;;;4.90;;
69005;SDS011;56061;51.748;19.620;2023-05-19T12:13:16;10.50;;;5.90;;
69005;SDS011;56061;51.748;19.620;2023-05-19T12:15:42;10.00;;;5.40;;
69005;SDS011;56061;51.748;19.620;2023-05-19T12:18:09;9.70;;;5.10;;
69005;SDS011;56061;51.748;19.620;2023-05-19T12:20:36;10.50;;;5.40;;
69005;SDS011;56061;51.748;19.620;2023-05-19T12:23:04;10.20;;;5.60;;
69005;SDS011;56061;51.748;19.620;2023-05-19T12:25:31;9.60;;;5.70;;
69005;SDS011;56061;51.748;19.620;2023-05-19T12:27:59;8.80;;;5.00;;
69005;SDS011;56061;51.748;19.620;2023-05-19T12:30:29;8.90;;;5.40;;
69005;SDS011;56061;51.748;19.620;2023-05-19T12:32:57;11.30;;;6.20;;
69005;SDS011;56061;51.748;19.620;2023-05-19T12:35:30;11.50;;;5.60;;
69005;SDS011;56061;51.748;19.620;2023-05-19T12:38:05;12.80;;;6.50;;
69005;SDS011;56061;51.748;19.620;2023-05-19T12:40:33;13.40;;;6.60;;
69005;SDS011;56061;51.748;19.620;2023-05-19T12:43:01;11.30;;;6.60;;
69005;SDS011;56061;51.748;19.620;2023-05-19T12:45:33;10.90;;;5.70;;
69005;SDS011;56061;51.748;19.620;2023-05-19T12:48:07;12.40;;;6.80;;
69005;SDS011;56061;51.748;19.620;2023-05-19T12:50:37;12.50;;;6.50;;
69005;SDS011;56061;51.748;19.620;2023-05-19T12:53:07;11.90;;;6.20;;
69005;SDS011;56061;51.748;19.620;2023-05-19T12:55:40;12.40;;;6.40;;
69005;SDS011;56061;51.748;19.620;2023-05-19T12:58:11;12.90;;;6.70;;
69005;SDS011;56061;51.748;19.620;2023-05-19T13:00:43;9.90;;;5.90;;
69005;SDS011;56061;51.748;19.620;2023-05-19T13:03:18;12.90;;;6.30;;
69005;SDS011;56061;51.748;19.620;2023-05-19T13:05:47;13.30;;;7.20;;
69005;SDS011;56061;51.748;19.620;2023-05-19T13:08:17;11.60;;;7.20;;
69005;SDS011;56061;51.748;19.620;2023-05-19T13:10:46;11.70;;;6.60;;
69005;SDS011;56061;51.748;19.620;2023-05-19T13:13:14;10.90;;;6.70;;
69005;SDS011;56061;51.748;19.620;2023-05-19T13:15:43;11.40;;;6.40;;
69005;SDS011;56061;51.748;19.620;2023-05-19T13:18:11;11.90;;;7.50;;
69005;SDS011;56061;51.748;19.620;2023-05-19T13:20:40;16.00;;;7.50;;
69005;SDS011;56061;51.748;19.620;2023-05-19T13:23:11;13.00;;;6.80;;
69005;SDS011;56061;51.748;19.620;2023-05-19T13:25:40;11.20;;;6.70;;
69005;SDS011;56061;51.748;19.620;2023-05-19T13:28:07;13.00;;;6.80;;
69005;SDS011;56061;51.748;19.620;2023-05-19T13:30:36;13.80;;;7.70;;
69005;SDS011;56061;51.748;19.620;2023-05-19T13:33:04;14.20;;;7.70;;
69005;SDS011;56061;51.748;19.620;2023-05-19T13:35:32;14.20;;;6.90;;
69005;SDS011;56061;51.748;19.620;2023-05-19T13:38:05;13.70;;;7.10;;
69005;SDS011;56061;51.748;19.620;2023-05-19T13:40:33;11.50;;;6.40;;
69005;SDS011;56061;51.748;19.620;2023-05-19T13:43:02;13.60;;;7.50;;
69005;SDS011;56061;51.748;19.620;2023-05-19T13:45:29;14.30;;;7.30;;
69005;SDS011;56061;51.748;19.620;2023-05-19T13:47:56;15.40;;;7.80;;
69005;SDS011;56061;51.748;19.620;2023-05-19T13:50:22;14.60;;;7.00;;
69005;SDS011;56061;51.748;19.620;2023-05-19T13:52:49;14.40;;;8.40;;
69005;SDS011;56061;51.748;19.620;2023-05-19T13:55:16;15.90;;;7.90;;
69005;SDS011;56061;51.748;19.620;2023-05-19T13:57:43;17.00;;;7.70;;
69005;SDS011;56061;51.748;19.620;2023-05-19T14:00:10;13.10;;;7.50;;
69005;SDS011;56061;51.748;19.620;2023-05-19T14:02:37;16.60;;;8.30;;
69005;SDS011;56061;51.748;19.620;2023-05-19T14:05:05;15.90;;;8.50;;
69005;SDS011;56061;51.748;19.620;2023-05-19T14:07:32;14.90;;;8.00;;
69005;SDS011;56061;51.748;19.620;2023-05-19T14:10:01;13.40;;;7.80;;
69005;SDS011;56061;51.748;19.620;2023-05-19T14:12:29;13.70;;;7.30;;
69005;SDS011;56061;51.748;19.620;2023-05-19T14:15:12;15.20;;;8.70;;
69005;SDS011;56061;51.748;19.620;2023-05-19T14:17:39;18.30;;;9.20;;
69005;SDS011;56061;51.748;19.620;2023-05-19T14:20:06;15.50;;;8.70;;
69005;SDS011;56061;51.748;19.620;2023-05-19T14:22:33;17.40;;;9.10;;
69005;SDS011;56061;51.748;19.620;2023-05-19T14:25:01;21.40;;;9.60;;
69005;SDS011;56061;51.748;19.620;2023-05-19T14:27:27;17.30;;;9.50;;
69005;SDS011;56061;51.748;19.620;2023-05-19T14:29:54;19.50;;;9.00;;
69005;SDS011;56061;51.748;19.620;2023-05-19T14:32:21;15.70;;;8.10;;
69005;SDS011;56061;51.748;19.620;2023-05-19T14:34:47;17.70;;;9.00;;
69005;SDS011;56061;51.748;19.620;2023-05-19T14:37:18;17.20;;;9.10;;
69005;SDS011;56061;51.748;19.620;2023-05-19T14:39:45;17.20;;;8.40;;
69005;SDS011;56061;51.748;19.620;2023-05-19T14:42:12;15.70;;;8.20;;
69005;SDS011;56061;51.748;19.620;2023-05-19T14:44:38;15.20;;;8.20;;
69005;SDS011;56061;51.748;19.620;2023-05-19T14:47:05;17.60;;;8.90;;
69005;SDS011;56061;51.748;19.620;2023-05-19T14:49:32;13.80;;;8.30;;
69005;SDS011;56061;51.748;19.620;2023-05-19T14:51:59;14.70;;;7.30;;
69005;SDS011;56061;51.748;19.620;2023-05-19T14:54:26;14.70;;;7.90;;